Time;durP1;ratioP1;P1;durP2;ratioP2;P2;SDS_P1;SDS_P2;PMS_P1;PMS_P2;Temp;Humidity;BMP_temperature;BMP_pressure;BME280_temperature;BME280_humidity;BME280_pressure;Samples;Min_cycle;Max_cycle;Signal;HPM_P1;HPM_P2
2022/08/16 00:00:32;;;;;;;2.45;2.25;;;;;;;;;;5058731;28;20285;-83
2022/08/16 00:03:01;;;;;;;3.20;2.90;;;;;;;;;;5059427;28;20291;-83
2022/08/16 00:05:30;;;;;;;3.28;2.65;;;;;;;;;;5059284;28;20207;-82
2022/08/16 00:07:58;;;;;;;2.80;2.60;;;;;;;;;;5059242;28;20232;-83
2022/08/16 00:10:31;;;;;;;3.13;2.60;;;;;;;;;;5058950;28;20204;-83
2022/08/16 00:13:00;;;;;;;2.72;2.40;;;;;;;;;;5059331;28;20229;-83
2022/08/16 00:15:35;;;;;;;2.38;2.17;;;;;;;;;;5059328;28;20232;-83
2022/08/16 00:18:04;;;;;;;3.85;2.55;;;;;;;;;;5058439;28;20256;-83
2022/08/16 00:20:32;;;;;;;1.90;1.80;;;;;;;;;;5059415;28;20197;-83
2022/08/16 00:23:00;;;;;;;2.20;2.10;;;;;;;;;;5059222;28;20241;-83
2022/08/16 00:25:28;;;;;;;2.28;2.08;;;;;;;;;;5058315;28;20237;-83
2022/08/16 00:27:55;;;;;;;2.58;2.40;;;;;;;;;;5058136;28;20704;-83
2022/08/16 00:30:24;;;;;;;1.80;1.70;;;;;;;;;;5058366;28;20198;-83
2022/08/16 00:32:58;;;;;;;2.63;2.10;;;;;;;;;;5058896;28;20229;-83
2022/08/16 00:35:29;;;;;;;2.45;2.22;;;;;;;;;;5058075;28;20229;-83
2022/08/16 00:37:57;;;;;;;2.67;2.47;;;;;;;;;;5058716;28;20304;-83
2022/08/16 00:40:31;;;;;;;2.85;2.65;;;;;;;;;;5058470;28;20670;-83
2022/08/16 00:42:58;;;;;;;2.63;2.42;;;;;;;;;;5058962;28;20245;-83
2022/08/16 00:45:33;;;;;;;2.55;2.35;;;;;;;;;;5058306;28;20230;-83
2022/08/16 00:48:06;;;;;;;2.50;2.30;;;;;;;;;;5058238;28;20652;-83
2022/08/16 00:50:37;;;;;;;4.50;2.78;;;;;;;;;;5058300;28;20190;-83
2022/08/16 00:53:05;;;;;;;3.40;3.10;;;;;;;;;;5057922;28;20222;-83
2022/08/16 00:55:33;;;;;;;2.72;2.25;;;;;;;;;;5058055;28;20202;-83
2022/08/16 00:58:00;;;;;;;2.03;1.88;;;;;;;;;;5058254;28;20312;-83
2022/08/16 01:00:31;;;;;;;2.20;2.10;;;;;;;;;;5058312;28;20788;-83
2022/08/16 01:03:06;;;;;;;2.72;2.60;;;;;;;;;;5057864;28;20221;-83
2022/08/16 01:05:34;;;;;;;2.00;1.90;;;;;;;;;;5058450;28;20719;-83
2022/08/16 01:08:02;;;;;;;2.15;1.83;;;;;;;;;;5057365;28;20201;-83
2022/08/16 01:10:31;;;;;;;1.85;1.75;;;;;;;;;;5057802;28;20573;-83
2022/08/16 01:13:03;;;;;;;2.38;2.10;;;;;;;;;;5057732;28;20226;-83
2022/08/16 01:15:30;;;;;;;3.35;2.17;;;;;;;;;;5057650;28;20231;-83
2022/08/16 01:17:58;;;;;;;2.80;2.53;;;;;;;;;;5057418;28;20249;-83
2022/08/16 01:20:28;;;;;;;6.63;4.03;;;;;;;;;;5057714;28;20248;-83
2022/08/16 01:23:02;;;;;;;2.60;2.47;;;;;;;;;;5057539;28;20263;-83
2022/08/16 01:25:35;;;;;;;2.70;2.50;;;;;;;;;;5056981;28;20185;-83
2022/08/16 01:28:08;;;;;;;3.10;2.80;;;;;;;;;;5057750;28;20198;-83
2022/08/16 01:30:39;;;;;;;2.75;2.55;;;;;;;;;;5057900;28;20227;-83
2022/08/16 01:33:08;;;;;;;3.13;2.88;;;;;;;;;;5057349;28;20221;-83
2022/08/16 01:35:38;;;;;;;3.88;2.65;;;;;;;;;;5057697;28;20745;-83
2022/08/16 01:38:21;;;;;;;2.13;2.03;;;;;;;;;;5057247;28;20194;-82
2022/08/16 01:40:53;;;;;;;2.40;2.20;;;;;;;;;;5057631;28;20201;-83
2022/08/16 01:43:21;;;;;;;3.10;2.88;;;;;;;;;;5056978;28;20214;-83
2022/08/16 01:45:48;;;;;;;3.17;2.80;;;;;;;;;;5056812;28;20241;-83
2022/08/16 01:48:16;;;;;;;2.53;2.33;;;;;;;;;;5057356;28;20662;-85
2022/08/16 01:50:45;;;;;;;1.90;1.80;;;;;;;;;;5057501;28;20209;-83
2022/08/16 01:53:13;;;;;;;2.50;2.30;;;;;;;;;;5056748;28;20260;-83
2022/08/16 01:55:43;;;;;;;2.35;2.22;;;;;;;;;;5057306;28;20624;-82
2022/08/16 01:58:12;;;;;;;2.40;2.10;;;;;;;;;;5056874;28;20201;-82
2022/08/16 02:00:40;;;;;;;2.28;2.17;;;;;;;;;;5056870;28;20237;-83
2022/08/16 02:03:08;;;;;;;2.13;2.00;;;;;;;;;;5056197;28;20249;-83
2022/08/16 02:05:36;;;;;;;2.67;2.47;;;;;;;;;;5056473;28;20201;-83
2022/08/16 02:08:06;;;;;;;2.08;1.98;;;;;;;;;;5056903;28;20265;-83
2022/08/16 02:10:35;;;;;;;2.22;2.13;;;;;;;;;;5056848;28;20578;-83
2022/08/16 02:13:04;;;;;;;2.22;2.13;;;;;;;;;;5056852;28;20221;-83
2022/08/16 02:15:35;;;;;;;4.25;2.70;;;;;;;;;;5056844;28;20264;-83
2022/08/16 02:18:04;;;;;;;2.55;2.35;;;;;;;;;;5056342;28;20635;-83
2022/08/16 02:20:36;;;;;;;3.28;3.03;;;;;;;;;;5056434;28;20214;-83
2022/08/16 02:23:04;;;;;;;2.60;2.40;;;;;;;;;;5056424;28;20214;-83
2022/08/16 02:25:32;;;;;;;2.17;2.05;;;;;;;;;;5056517;28;20734;-83
2022/08/16 02:28:00;;;;;;;2.20;2.10;;;;;;;;;;5056290;28;20685;-83
2022/08/16 02:30:32;;;;;;;2.10;2.00;;;;;;;;;;5056287;28;20225;-82
2022/08/16 02:33:00;;;;;;;2.38;2.17;;;;;;;;;;5056955;28;20229;-83
2022/08/16 02:35:28;;;;;;;3.13;2.72;;;;;;;;;;5056441;28;20240;-83
2022/08/16 02:37:56;;;;;;;2.53;2.42;;;;;;;;;;5056251;28;20205;-83
2022/08/16 02:40:25;;;;;;;2.40;2.20;;;;;;;;;;5055843;28;20252;-83
2022/08/16 02:42:53;;;;;;;2.22;2.13;;;;;;;;;;5056319;28;20257;-83
2022/08/16 02:45:24;;;;;;;1.60;1.50;;;;;;;;;;5055454;28;20241;-82
2022/08/16 02:47:53;;;;;;;2.50;2.40;;;;;;;;;;5055623;28;20209;-83
2022/08/16 02:50:21;;;;;;;2.97;2.78;;;;;;;;;;5055289;28;20619;-82
2022/08/16 02:52:49;;;;;;;3.35;2.72;;;;;;;;;;5055215;28;20240;-83
2022/08/16 02:55:17;;;;;;;2.83;2.58;;;;;;;;;;5054905;28;20194;-83
2022/08/16 02:57:45;;;;;;;2.20;2.10;;;;;;;;;;5055066;28;20205;-83
2022/08/16 03:00:15;;;;;;;2.35;2.15;;;;;;;;;;5055016;28;20280;-83
2022/08/16 03:02:44;;;;;;;2.67;2.42;;;;;;;;;;5055417;28;20197;-83
2022/08/16 03:05:16;;;;;;;4.35;2.72;;;;;;;;;;5055302;28;20288;-83
2022/08/16 03:07:44;;;;;;;2.28;2.17;;;;;;;;;;5055421;28;20617;-83
2022/08/16 03:10:13;;;;;;;2.53;2.33;;;;;;;;;;5055151;28;20240;-83
2022/08/16 03:12:42;;;;;;;2.70;2.10;;;;;;;;;;5054730;28;20248;-83
2022/08/16 03:15:12;;;;;;;1.80;1.70;;;;;;;;;;5054950;28;20259;-83
2022/08/16 03:17:41;;;;;;;2.33;2.13;;;;;;;;;;5055491;28;20209;-83
2022/08/16 03:20:12;;;;;;;2.53;2.40;;;;;;;;;;5057646;28;20316;-83
2022/08/16 03:22:42;;;;;;;2.10;2.00;;;;;;;;;;5057863;28;20247;-83
2022/08/16 03:25:13;;;;;;;2.45;2.30;;;;;;;;;;5057891;28;20634;-83
2022/08/16 03:27:41;;;;;;;2.58;2.38;;;;;;;;;;5058370;28;20222;-83
2022/08/16 03:30:13;;;;;;;2.50;2.40;;;;;;;;;;5058270;28;20197;-83
2022/08/16 03:32:41;;;;;;;2.65;2.45;;;;;;;;;;5058156;28;20239;-83
2022/08/16 03:35:09;;;;;;;2.17;2.08;;;;;;;;;;5045169;23;20268;-79
2022/08/16 03:37:42;;;;;;;2.85;2.60;;;;;;;;;;5034290;28;20250;-79
2022/08/16 03:40:13;;;;;;;2.10;2.00;;;;;;;;;;5034932;28;20269;-80
2022/08/16 03:42:41;;;;;;;2.55;2.35;;;;;;;;;;5035115;28;20198;-80
2022/08/16 03:45:10;;;;;;;2.70;2.50;;;;;;;;;;5034486;28;20297;-79
2022/08/16 03:47:37;;;;;;;3.10;2.90;;;;;;;;;;5035325;28;20226;-81
2022/08/16 03:50:07;;;;;;;2.60;2.40;;;;;;;;;;5063641;28;20682;-79
2022/08/16 03:52:35;;;;;;;2.78;2.50;;;;;;;;;;5074439;28;20764;-80
2022/08/16 03:55:03;;;;;;;2.50;2.35;;;;;;;;;;5074565;28;20197;-80
2022/08/16 03:57:32;;;;;;;2.70;2.50;;;;;;;;;;5074172;28;20312;-79
2022/08/16 04:00:00;;;;;;;2.45;2.25;;;;;;;;;;5073943;28;20221;-80
2022/08/16 04:02:28;;;;;;;2.90;2.55;;;;;;;;;;5074519;28;20300;-80
2022/08/16 04:04:55;;;;;;;2.50;2.30;;;;;;;;;;5074335;28;20205;-79
2022/08/16 04:07:23;;;;;;;2.28;2.17;;;;;;;;;;5074141;28;20235;-80
2022/08/16 04:09:51;;;;;;;2.10;2.00;;;;;;;;;;5074064;28;20200;-80
2022/08/16 04:12:18;;;;;;;2.53;2.33;;;;;;;;;;5073831;28;20201;-80
2022/08/16 04:14:48;;;;;;;2.40;2.25;;;;;;;;;;5073672;28;20736;-80
2022/08/16 04:17:16;;;;;;;2.83;2.63;;;;;;;;;;5074130;28;20267;-80
2022/08/16 04:19:44;;;;;;;2.50;2.30;;;;;;;;;;5055276;28;20357;-80
2022/08/16 04:22:12;;;;;;;3.35;2.38;;;;;;;;;;5053867;28;20704;-80
2022/08/16 04:24:39;;;;;;;2.63;2.42;;;;;;;;;;5053900;28;20289;-80
2022/08/16 04:27:07;;;;;;;2.28;2.10;;;;;;;;;;5053654;28;20808;-79
2022/08/16 04:29:34;;;;;;;2.60;2.40;;;;;;;;;;5053701;28;20281;-80
2022/08/16 04:32:04;;;;;;;3.53;3.13;;;;;;;;;;5053760;28;20222;-80
2022/08/16 04:34:35;;;;;;;2.22;2.13;;;;;;;;;;5015524;28;1102178;-79
2022/08/16 04:37:04;;;;;;;2.28;2.08;;;;;;;;;;5055752;28;20259;-80
2022/08/16 04:39:33;;;;;;;1.85;1.75;;;;;;;;;;5054765;28;20208;-79
2022/08/16 04:42:01;;;;;;;2.00;1.90;;;;;;;;;;5054523;28;20231;-80
2022/08/16 04:44:29;;;;;;;2.42;2.25;;;;;;;;;;5054202;28;20741;-79
2022/08/16 04:46:56;;;;;;;2.22;2.08;;;;;;;;;;5054099;28;20626;-79
2022/08/16 04:49:25;;;;;;;2.75;2.55;;;;;;;;;;5054014;28;20209;-79
2022/08/16 04:51:53;;;;;;;2.70;2.50;;;;;;;;;;5054375;28;20288;-80
2022/08/16 04:54:21;;;;;;;2.50;2.30;;;;;;;;;;5054604;28;20889;-79
2022/08/16 04:56:48;;;;;;;2.58;2.38;;;;;;;;;;5053685;28;20273;-79
2022/08/16 04:59:16;;;;;;;3.22;2.03;;;;;;;;;;5054242;28;20233;-79
2022/08/16 05:01:43;;;;;;;3.47;2.67;;;;;;;;;;5054262;28;20308;-81
2022/08/16 05:04:11;;;;;;;2.40;2.20;;;;;;;;;;5053959;28;20225;-79
2022/08/16 05:06:40;;;;;;;1.98;1.83;;;;;;;;;;5053370;28;20292;-79
2022/08/16 05:09:07;;;;;;;2.08;1.88;;;;;;;;;;5053926;28;20312;-80
2022/08/16 05:11:35;;;;;;;2.30;2.10;;;;;;;;;;5053470;28;20284;-80
2022/08/16 05:14:02;;;;;;;2.38;2.17;;;;;;;;;;5053819;28;20229;-80
2022/08/16 05:16:32;;;;;;;3.17;2.97;;;;;;;;;;5053277;28;20205;-80
2022/08/16 05:19:01;;;;;;;2.40;2.25;;;;;;;;;;5053806;28;20230;-79
2022/08/16 05:21:30;;;;;;;3.05;2.65;;;;;;;;;;5053985;28;20260;-79
2022/08/16 05:23:59;;;;;;;3.10;2.90;;;;;;;;;;5053928;28;20205;-79
2022/08/16 05:26:29;;;;;;;2.95;2.70;;;;;;;;;;5053671;28;20284;-79
2022/08/16 05:28:57;;;;;;;2.38;2.25;;;;;;;;;;5054100;28;20313;-79
2022/08/16 05:31:25;;;;;;;2.78;2.58;;;;;;;;;;5053705;28;20284;-79
2022/08/16 05:33:53;;;;;;;2.13;2.03;;;;;;;;;;5048555;28;20205;-79
2022/08/16 05:36:21;;;;;;;2.88;2.67;;;;;;;;;;5053201;28;20733;-79
2022/08/16 05:38:49;;;;;;;3.70;3.40;;;;;;;;;;5053618;28;20300;-78
2022/08/16 05:41:18;;;;;;;5.38;4.88;;;;;;;;;;5052906;28;20332;-79
2022/08/16 05:43:45;;;;;;;5.03;4.53;;;;;;;;;;5053125;28;20202;-79
2022/08/16 05:46:16;;;;;;;4.90;4.03;;;;;;;;;;5053436;28;20751;-78
2022/08/16 05:48:44;;;;;;;5.13;4.40;;;;;;;;;;5053289;28;20217;-79
2022/08/16 05:51:12;;;;;;;5.97;4.35;;;;;;;;;;5063605;28;20201;-79
2022/08/16 05:53:39;;;;;;;5.57;4.10;;;;;;;;;;5073307;28;20747;-79
2022/08/16 05:56:07;;;;;;;4.68;4.28;;;;;;;;;;5063408;28;20248;-79
2022/08/16 05:58:36;;;;;;;4.18;3.80;;;;;;;;;;5052363;28;20300;-80
2022/08/16 06:01:05;;;;;;;4.88;3.80;;;;;;;;;;5052835;28;20308;-79
2022/08/16 06:03:32;;;;;;;6.18;4.68;;;;;;;;;;5053157;28;20300;-79
2022/08/16 06:06:00;;;;;;;5.18;4.07;;;;;;;;;;5051445;28;20205;-79
2022/08/16 06:08:27;;;;;;;3.90;3.60;;;;;;;;;;5050948;28;20367;-78
2022/08/16 06:10:55;;;;;;;4.10;3.75;;;;;;;;;;5050457;28;20202;-79
2022/08/16 06:13:23;;;;;;;3.95;3.55;;;;;;;;;;5050075;28;20729;-78
2022/08/16 06:15:53;;;;;;;3.88;3.35;;;;;;;;;;5051262;28;20305;-78
2022/08/16 06:18:20;;;;;;;3.78;3.47;;;;;;;;;;5052442;28;20662;-78
2022/08/16 06:20:48;;;;;;;4.95;4.10;;;;;;;;;;5052215;28;20292;-79
2022/08/16 06:23:15;;;;;;;4.50;4.10;;;;;;;;;;5052042;28;20247;-79
2022/08/16 06:25:43;;;;;;;4.38;3.75;;;;;;;;;;5052468;28;20202;-79
2022/08/16 06:28:12;;;;;;;3.85;3.55;;;;;;;;;;5051539;28;20324;-78
2022/08/16 06:30:40;;;;;;;4.70;3.75;;;;;;;;;;5052829;28;20208;-79
2022/08/16 06:33:09;;;;;;;3.60;3.30;;;;;;;;;;5052018;28;20682;-78
2022/08/16 06:35:37;;;;;;;3.28;2.97;;;;;;;;;;5052179;28;20292;-78
2022/08/16 06:38:04;;;;;;;3.00;2.80;;;;;;;;;;5052226;28;20228;-78
2022/08/16 06:40:32;;;;;;;4.32;3.67;;;;;;;;;;5052480;28;20654;-79
2022/08/16 06:43:00;;;;;;;3.15;2.95;;;;;;;;;;5052221;28;20221;-78
2022/08/16 06:45:28;;;;;;;3.40;3.10;;;;;;;;;;5051672;28;20626;-79
2022/08/16 06:47:56;;;;;;;3.33;3.03;;;;;;;;;;5051673;28;20683;-79
2022/08/16 06:50:25;;;;;;;4.32;3.95;;;;;;;;;;5051988;28;20758;-79
2022/08/16 06:52:53;;;;;;;4.10;3.22;;;;;;;;;;5052085;28;20281;-79
2022/08/16 06:55:20;;;;;;;3.05;2.78;;;;;;;;;;5052091;28;20308;-79
2022/08/16 06:57:48;;;;;;;3.90;3.08;;;;;;;;;;5051814;28;20303;-78
2022/08/16 07:00:16;;;;;;;5.03;3.97;;;;;;;;;;5051409;28;20240;-79
2022/08/16 07:02:45;;;;;;;6.00;4.45;;;;;;;;;;5051938;28;20225;-79
2022/08/16 07:05:15;;;;;;;5.47;4.35;;;;;;;;;;5052029;28;20208;-79
2022/08/16 07:07:47;;;;;;;4.22;3.50;;;;;;;;;;5051572;28;20312;-79
2022/08/16 07:10:15;;;;;;;4.43;3.25;;;;;;;;;;5052589;28;20240;-79
2022/08/16 07:12:43;;;;;;;3.95;3.65;;;;;;;;;;5052197;28;20193;-79
2022/08/16 07:15:11;;;;;;;3.63;3.33;;;;;;;;;;5052524;28;20265;-79
2022/08/16 07:17:39;;;;;;;3.95;3.65;;;;;;;;;;5051815;28;20257;-80
2022/08/16 07:20:09;;;;;;;3.65;3.35;;;;;;;;;;5052924;28;20280;-79
2022/08/16 07:22:37;;;;;;;3.67;3.47;;;;;;;;;;5052877;28;20225;-79
2022/08/16 07:25:07;;;;;;;3.60;3.30;;;;;;;;;;5053152;28;20296;-79
2022/08/16 07:27:35;;;;;;;3.40;3.13;;;;;;;;;;5053947;28;20304;-79
2022/08/16 07:30:03;;;;;;;3.17;2.97;;;;;;;;;;5052745;28;20287;-80
2022/08/16 07:32:31;;;;;;;3.40;3.10;;;;;;;;;;5052753;28;20758;-80
2022/08/16 07:34:58;;;;;;;3.38;3.08;;;;;;;;;;5052813;28;20248;-80
2022/08/16 07:37:26;;;;;;;3.38;3.05;;;;;;;;;;5051725;28;20231;-79
2022/08/16 07:39:53;;;;;;;3.15;2.60;;;;;;;;;;5052462;28;20237;-79
2022/08/16 07:42:22;;;;;;;3.25;3.05;;;;;;;;;;5051877;28;20222;-79
2022/08/16 07:44:50;;;;;;;2.90;2.70;;;;;;;;;;5052366;28;20292;-79
2022/08/16 07:47:18;;;;;;;3.17;2.90;;;;;;;;;;5052035;28;20275;-80
2022/08/16 07:49:45;;;;;;;3.17;2.97;;;;;;;;;;5052608;28;20288;-80
2022/08/16 07:52:13;;;;;;;2.92;2.67;;;;;;;;;;5053007;28;20240;-81
2022/08/16 07:54:40;;;;;;;3.05;2.85;;;;;;;;;;5052399;28;20285;-80
2022/08/16 07:57:07;;;;;;;2.78;2.58;;;;;;;;;;5052213;28;20316;-80
2022/08/16 07:59:36;;;;;;;3.10;2.90;;;;;;;;;;5052488;28;20280;-79
2022/08/16 08:02:04;;;;;;;3.05;2.75;;;;;;;;;;5052000;28;20276;-79
2022/08/16 08:04:32;;;;;;;3.35;3.08;;;;;;;;;;5054473;28;20284;-79
2022/08/16 08:07:01;;;;;;;2.72;2.53;;;;;;;;;;5054879;28;20292;-79
2022/08/16 08:09:28;;;;;;;3.15;2.92;;;;;;;;;;5055499;28;20233;-79
2022/08/16 08:11:56;;;;;;;2.80;2.60;;;;;;;;;;5055340;28;20212;-80
2022/08/16 08:14:24;;;;;;;3.13;2.33;;;;;;;;;;5055304;28;20201;-79
2022/08/16 08:16:52;;;;;;;2.90;2.70;;;;;;;;;;5055025;28;20288;-80
2022/08/16 08:19:20;;;;;;;3.05;2.85;;;;;;;;;;5055432;28;20660;-80
2022/08/16 08:21:47;;;;;;;2.75;2.55;;;;;;;;;;5055574;28;20288;-79
2022/08/16 08:24:15;;;;;;;3.55;2.70;;;;;;;;;;5054563;28;20608;-80
2022/08/16 08:26:43;;;;;;;3.67;3.38;;;;;;;;;;5054954;28;20263;-80
2022/08/16 08:29:10;;;;;;;3.20;2.97;;;;;;;;;;5054973;28;20234;-81
2022/08/16 08:31:40;;;;;;;2.90;2.70;;;;;;;;;;5055265;28;20292;-80
2022/08/16 08:34:09;;;;;;;2.22;2.13;;;;;;;;;;5054674;28;20205;-80
2022/08/16 08:36:37;;;;;;;2.33;2.20;;;;;;;;;;5053142;28;20681;-80
2022/08/16 08:39:06;;;;;;;2.80;2.60;;;;;;;;;;5054565;28;20235;-80
2022/08/16 08:41:34;;;;;;;2.58;2.40;;;;;;;;;;5054385;28;20197;-80
2022/08/16 08:44:03;;;;;;;3.13;2.92;;;;;;;;;;5054467;28;20235;-81
2022/08/16 08:46:31;;;;;;;2.40;2.20;;;;;;;;;;5054428;28;20194;-80
2022/08/16 08:48:59;;;;;;;2.65;2.45;;;;;;;;;;5054245;28;20632;-80
2022/08/16 08:51:29;;;;;;;2.45;2.25;;;;;;;;;;5054264;28;20296;-80
2022/08/16 08:53:56;;;;;;;2.45;2.28;;;;;;;;;;5053790;28;20292;-80
2022/08/16 08:56:24;;;;;;;2.70;2.50;;;;;;;;;;5053794;28;20288;-80
2022/08/16 08:58:51;;;;;;;2.78;2.58;;;;;;;;;;5054518;28;20253;-80
2022/08/16 09:01:22;;;;;;;2.55;2.35;;;;;;;;;;5054403;28;20640;-80
2022/08/16 09:03:50;;;;;;;2.60;2.40;;;;;;;;;;5054096;28;20233;-80
2022/08/16 09:06:18;;;;;;;2.40;2.20;;;;;;;;;;5054268;28;20206;-80
2022/08/16 09:08:47;;;;;;;2.63;2.42;;;;;;;;;;5053586;28;20317;-80
2022/08/16 09:11:14;;;;;;;2.33;2.22;;;;;;;;;;5053785;28;20741;-80
2022/08/16 09:13:43;;;;;;;2.58;2.38;;;;;;;;;;5053225;28;20248;-80
2022/08/16 09:16:11;;;;;;;2.10;1.90;;;;;;;;;;5052711;28;20206;-80
2022/08/16 09:18:38;;;;;;;2.15;2.05;;;;;;;;;;5052986;28;20229;-81
2022/08/16 09:21:06;;;;;;;2.20;2.10;;;;;;;;;;5053915;28;20739;-80
2022/08/16 09:23:36;;;;;;;2.85;2.65;;;;;;;;;;5053737;28;20222;-80
2022/08/16 09:26:06;;;;;;;2.60;2.40;;;;;;;;;;5053931;28;20228;-80
2022/08/16 09:28:34;;;;;;;5.20;2.45;;;;;;;;;;5053319;28;20230;-80
2022/08/16 09:31:01;;;;;;;2.75;2.53;;;;;;;;;;5053131;28;20208;-81
2022/08/16 09:33:29;;;;;;;2.38;2.28;;;;;;;;;;5053213;28;20296;-81
2022/08/16 09:35:56;;;;;;;2.45;2.33;;;;;;;;;;5053159;28;20704;-81
2022/08/16 09:38:25;;;;;;;1.98;1.88;;;;;;;;;;5053366;28;20353;-80
2022/08/16 09:40:55;;;;;;;2.17;2.08;;;;;;;;;;5053023;28;20677;-81
2022/08/16 09:43:24;;;;;;;2.33;2.22;;;;;;;;;;5053289;28;20561;-81
2022/08/16 09:45:52;;;;;;;2.00;1.90;;;;;;;;;;5053122;28;20202;-82
2022/08/16 09:48:19;;;;;;;2.67;2.25;;;;;;;;;;5052414;28;20319;-80
2022/08/16 09:50:47;;;;;;;5.10;2.10;;;;;;;;;;5053143;28;20237;-81
2022/08/16 09:53:19;;;;;;;2.80;2.60;;;;;;;;;;5053420;28;20197;-81
2022/08/16 09:55:51;;;;;;;2.75;2.55;;;;;;;;;;5053220;28;20449;-80
2022/08/16 09:58:20;;;;;;;2.30;2.20;;;;;;;;;;5052900;28;20253;-79
2022/08/16 10:00:49;;;;;;;2.25;2.05;;;;;;;;;;5052996;28;20753;-79
2022/08/16 10:03:17;;;;;;;1.95;1.85;;;;;;;;;;5053048;28;20661;-78
2022/08/16 10:05:45;;;;;;;2.40;2.30;;;;;;;;;;5053094;28;20288;-78
2022/08/16 10:08:15;;;;;;;2.47;2.30;;;;;;;;;;5052860;28;20313;-79
2022/08/16 10:13:10;;;;;;;2.83;2.63;;;;;;;;;;5053542;28;20205;-79
2022/08/16 10:13:30;;;;;;;2.60;2.40;;;;;;;;;;5052707;28;20220;-79
2022/08/16 10:15:59;;;;;;;2.25;2.08;;;;;;;;;;5052434;28;20240;-79
2022/08/16 10:18:28;;;;;;;2.03;1.92;;;;;;;;;;5052364;28;20232;-79
2022/08/16 10:20:57;;;;;;;2.30;2.20;;;;;;;;;;5052711;28;20863;-79
2022/08/16 10:23:25;;;;;;;2.20;2.10;;;;;;;;;;5052440;28;20228;-79
2022/08/16 10:25:52;;;;;;;4.00;2.33;;;;;;;;;;5051720;28;20244;-79
2022/08/16 10:28:20;;;;;;;3.67;2.47;;;;;;;;;;5051959;28;20603;-78
2022/08/16 10:30:47;;;;;;;2.50;2.40;;;;;;;;;;5052328;28;20197;-79
2022/08/16 10:33:17;;;;;;;2.28;2.08;;;;;;;;;;5052177;28;20695;-79
2022/08/16 10:35:46;;;;;;;2.55;2.13;;;;;;;;;;5052314;28;20205;-79
2022/08/16 10:38:15;;;;;;;2.33;2.22;;;;;;;;;;5051825;28;20229;-78
2022/08/16 10:40:43;;;;;;;2.30;2.10;;;;;;;;;;5052802;28;20620;-78
2022/08/16 10:43:11;;;;;;;2.65;2.08;;;;;;;;;;5052211;28;20208;-78
2022/08/16 10:45:40;;;;;;;2.05;1.95;;;;;;;;;;5051872;28;20233;-78
2022/08/16 10:48:11;;;;;;;2.28;2.17;;;;;;;;;;5051877;28;20719;-78
2022/08/16 10:50:41;;;;;;;3.72;1.95;;;;;;;;;;5052282;28;20468;-78
2022/08/16 10:53:08;;;;;;;2.55;2.35;;;;;;;;;;5052379;28;20203;-78
2022/08/16 10:55:36;;;;;;;2.60;2.40;;;;;;;;;;5052251;28;20749;-78
2022/08/16 10:58:05;;;;;;;2.13;2.00;;;;;;;;;;5052399;28;20223;-81
2022/08/16 11:00:34;;;;;;;1.77;1.67;;;;;;;;;;5052752;28;20231;-80
2022/08/16 11:03:02;;;;;;;2.22;2.03;;;;;;;;;;5052550;28;20297;-79
2022/08/16 11:05:32;;;;;;;2.50;2.40;;;;;;;;;;5052643;28;20221;-79
2022/08/16 11:08:03;;;;;;;2.78;2.58;;;;;;;;;;5052737;28;20228;-79
2022/08/16 11:10:34;;;;;;;2.50;2.30;;;;;;;;;;5052725;28;20291;-80
2022/08/16 11:13:03;;;;;;;1.92;1.83;;;;;;;;;;5053329;28;20212;-81
2022/08/16 11:15:30;;;;;;;2.15;1.95;;;;;;;;;;5052767;28;20236;-81
2022/08/16 11:17:59;;;;;;;2.00;1.90;;;;;;;;;;5052408;28;20227;-79
2022/08/16 11:20:27;;;;;;;1.88;1.77;;;;;;;;;;5052836;28;20708;-79
2022/08/16 11:22:55;;;;;;;2.95;2.10;;;;;;;;;;5052961;28;20261;-79
2022/08/16 11:25:26;;;;;;;2.53;2.30;;;;;;;;;;5053468;28;20311;-79
2022/08/16 11:27:56;;;;;;;3.42;1.95;;;;;;;;;;5052658;28;20312;-79
2022/08/16 11:30:27;;;;;;;1.77;1.67;;;;;;;;;;5052868;28;20296;-79
2022/08/16 11:32:54;;;;;;;2.90;2.65;;;;;;;;;;5053390;28;20292;-80
2022/08/16 11:35:25;;;;;;;2.63;2.42;;;;;;;;;;5052958;28;20296;-79
2022/08/16 11:37:56;;;;;;;3.22;3.00;;;;;;;;;;5053048;28;20311;-80
2022/08/16 11:40:31;;;;;;;2.47;2.28;;;;;;;;;;5056321;28;20204;-78
2022/08/16 11:42:58;;;;;;;2.20;2.10;;;;;;;;;;5055876;28;20197;-78
2022/08/16 11:45:26;;;;;;;2.30;2.20;;;;;;;;;;5055204;28;20258;-78
2022/08/16 11:47:54;;;;;;;2.20;2.10;;;;;;;;;;5055254;28;20312;-79
2022/08/16 11:50:23;;;;;;;2.22;2.13;;;;;;;;;;5057218;28;20205;-80
2022/08/16 11:52:50;;;;;;;2.67;2.47;;;;;;;;;;5057196;28;20236;-80
2022/08/16 11:55:18;;;;;;;2.47;2.28;;;;;;;;;;5056348;28;20674;-80
2022/08/16 11:57:47;;;;;;;2.17;2.08;;;;;;;;;;5054890;28;20220;-79
2022/08/16 12:00:16;;;;;;;2.40;2.30;;;;;;;;;;5057116;28;20236;-79
2022/08/16 12:02:44;;;;;;;2.25;2.15;;;;;;;;;;5056297;28;20212;-79
2022/08/16 12:05:16;;;;;;;1.92;1.83;;;;;;;;;;5056610;28;20320;-80
2022/08/16 12:07:43;;;;;;;2.28;1.85;;;;;;;;;;5056231;28;20284;-80
2022/08/16 12:10:15;;;;;;;2.47;2.28;;;;;;;;;;5057226;28;20292;-79
2022/08/16 12:12:42;;;;;;;2.55;2.42;;;;;;;;;;5056813;28;20670;-79
2022/08/16 12:15:13;;;;;;;2.22;2.13;;;;;;;;;;5056050;28;20284;-80
2022/08/16 12:17:42;;;;;;;2.65;2.45;;;;;;;;;;5055386;28;20213;-79
2022/08/16 12:20:15;;;;;;;2.30;2.10;;;;;;;;;;5065883;28;20235;-78
2022/08/16 12:22:43;;;;;;;2.53;2.40;;;;;;;;;;5075797;28;20580;-79
2022/08/16 12:25:14;;;;;;;1.92;1.83;;;;;;;;;;5076135;28;20320;-78
2022/08/16 12:27:43;;;;;;;2.20;2.10;;;;;;;;;;5075609;28;20216;-79
2022/08/16 12:30:14;;;;;;;2.17;2.08;;;;;;;;;;5075542;28;20251;-78
2022/08/16 12:32:42;;;;;;;2.10;1.90;;;;;;;;;;5075228;28;20193;-78
2022/08/16 12:35:14;;;;;;;1.85;1.75;;;;;;;;;;5075425;28;20300;-79
2022/08/16 12:37:43;;;;;;;2.00;1.90;;;;;;;;;;5075263;28;20303;-79
2022/08/16 12:40:16;;;;;;;1.67;1.58;;;;;;;;;;5074973;28;20295;-79
2022/08/16 12:42:44;;;;;;;2.05;1.85;;;;;;;;;;5075333;28;20292;-79
2022/08/16 12:45:15;;;;;;;2.28;2.08;;;;;;;;;;5075075;28;20708;-79
2022/08/16 12:50:27;;;;;;;2.10;2.00;;;;;;;;;;5054861;28;20200;-80
2022/08/16 12:52:55;;;;;;;2.10;2.00;;;;;;;;;;5055391;28;20228;-79
2022/08/16 12:55:23;;;;;;;2.30;2.10;;;;;;;;;;5054503;28;20197;-78
2022/08/16 12:57:52;;;;;;;2.20;1.90;;;;;;;;;;5054556;28;20316;-79
2022/08/16 13:00:22;;;;;;;1.75;1.65;;;;;;;;;;5054499;28;20211;-79
2022/08/16 13:02:50;;;;;;;1.85;1.75;;;;;;;;;;5054975;28;20284;-79
2022/08/16 13:05:17;;;;;;;1.75;1.67;;;;;;;;;;5054445;28;20312;-79
2022/08/16 13:07:46;;;;;;;1.52;1.45;;;;;;;;;;5053605;28;20609;-78
2022/08/16 13:10:14;;;;;;;1.50;1.40;;;;;;;;;;5054618;28;20197;-79
2022/08/16 13:12:44;;;;;;;2.00;1.90;;;;;;;;;;5054451;28;20201;-79
2022/08/16 13:15:15;;;;;;;1.80;1.70;;;;;;;;;;5054876;28;20736;-79
2022/08/16 13:17:44;;;;;;;2.05;1.95;;;;;;;;;;5054260;28;20228;-79
2022/08/16 13:20:17;;;;;;;2.53;2.33;;;;;;;;;;5054293;28;20205;-78
2022/08/16 13:22:48;;;;;;;2.47;2.35;;;;;;;;;;5054502;28;20293;-79
2022/08/16 13:25:19;;;;;;;2.50;2.30;;;;;;;;;;5053946;28;20201;-78
2022/08/16 13:27:47;;;;;;;2.22;2.13;;;;;;;;;;5053863;28;20221;-78
2022/08/16 13:30:15;;;;;;;2.65;2.45;;;;;;;;;;5053668;28;20292;-78
2022/08/16 13:32:44;;;;;;;3.38;2.88;;;;;;;;;;5053688;28;20292;-78
2022/08/16 13:35:12;;;;;;;2.65;2.38;;;;;;;;;;5053528;28;20244;-78
2022/08/16 13:37:40;;;;;;;2.80;2.60;;;;;;;;;;5053465;28;20608;-78
2022/08/16 13:40:08;;;;;;;2.70;2.50;;;;;;;;;;5053688;28;20212;-78
2022/08/16 13:42:37;;;;;;;2.72;2.53;;;;;;;;;;5053704;28;20198;-77
2022/08/16 13:45:06;;;;;;;2.35;2.25;;;;;;;;;;5053635;28;20202;-78
2022/08/16 13:47:33;;;;;;;2.47;2.15;;;;;;;;;;5053086;28;20229;-78
2022/08/16 13:50:03;;;;;;;2.60;2.13;;;;;;;;;;5052893;28;20239;-78
2022/08/16 13:52:31;;;;;;;2.60;2.45;;;;;;;;;;5053703;28;20206;-78
2022/08/16 13:54:58;;;;;;;2.28;2.13;;;;;;;;;;5053394;28;20711;-77
2022/08/16 13:57:26;;;;;;;2.80;2.60;;;;;;;;;;5052855;28;20668;-78
2022/08/16 13:59:53;;;;;;;2.90;2.60;;;;;;;;;;5053160;28;20288;-78
2022/08/16 14:02:22;;;;;;;2.15;2.05;;;;;;;;;;5048562;28;20291;-78
2022/08/16 14:04:49;;;;;;;2.42;2.22;;;;;;;;;;5057532;28;20577;-77
2022/08/16 14:07:18;;;;;;;3.90;2.88;;;;;;;;;;5051974;28;20213;-77
2022/08/16 14:09:46;;;;;;;2.58;2.45;;;;;;;;;;5052529;28;20205;-82
2022/08/16 14:12:24;;;;;;;3.42;2.92;;;;;;;;;;5054277;28;20289;-82
2022/08/16 14:14:51;;;;;;;2.70;2.28;;;;;;;;;;5051857;28;20292;-83
2022/08/16 14:17:20;;;;;;;3.10;2.53;;;;;;;;;;5052903;28;20662;-80
2022/08/16 14:19:49;;;;;;;2.28;2.17;;;;;;;;;;5054238;28;20202;-80
2022/08/16 14:22:20;;;;;;;2.85;2.53;;;;;;;;;;5053752;28;20691;-79
2022/08/16 14:24:51;;;;;;;3.90;2.20;;;;;;;;;;5054573;28;20288;-81
2022/08/16 14:27:20;;;;;;;2.90;2.40;;;;;;;;;;5054045;28;20221;-80
2022/08/16 14:29:49;;;;;;;2.40;2.20;;;;;;;;;;5054242;28;20292;-80
2022/08/16 14:32:17;;;;;;;2.22;2.10;;;;;;;;;;5053861;28;20292;-80
2022/08/16 14:34:45;;;;;;;2.70;2.50;;;;;;;;;;5054119;28;20259;-80
2022/08/16 14:37:12;;;;;;;2.60;2.47;;;;;;;;;;5053247;28;20309;-80
2022/08/16 14:39:41;;;;;;;2.55;2.38;;;;;;;;;;5053192;28;20308;-80
2022/08/16 14:42:12;;;;;;;3.85;2.72;;;;;;;;;;5052975;28;20201;-80
2022/08/16 14:44:40;;;;;;;2.75;2.42;;;;;;;;;;5053337;28;20290;-81
2022/08/16 14:47:08;;;;;;;2.13;2.03;;;;;;;;;;5052889;28;20797;-80
2022/08/16 14:49:36;;;;;;;2.25;2.10;;;;;;;;;;5053137;28;20288;-80
2022/08/16 14:52:07;;;;;;;2.45;2.35;;;;;;;;;;5053442;28;20244;-80
2022/08/16 14:54:35;;;;;;;2.20;2.08;;;;;;;;;;5052769;28;20286;-80